Ryuoh Maru No.2 — JM5900 — position and weather

sailwx.info

Track history (hours):
 
Tides and Currents Weather Stations Pressure Air Temp Water Temp Dewpoint Dewpoint Depression Visibility Wind Speed Wind Dir Waves Ship Positions

Ryuoh Maru No.2

Last reported at 2015-May-24 18:32 UTC. Time now 2015-May-24 19:24 UTC.
Position N 35°22' E 139°49'.

Length 80 m; draft 4.2 m.

Type: Cargo ship. MMSI: 431401218.

Date/timePositionNaut miles runAvg speedWind from/ knotsBaromVisibWave heightAir tempDewpointWater temp
2015-May-24 18:32N 35°22' E 139°49'0 0.0
2015-May-24 17:32N 35°22' E 139°49'0 0.0
2015-May-24 16:32N 35°22' E 139°49'0 0.0
2015-May-24 15:31N 35°22' E 139°49'0 0.0
2015-May-24 14:31N 35°22' E 139°49'0 0.0
2015-May-24 13:31N 35°22' E 139°49'0 0.0
2015-May-24 12:31N 35°22' E 139°49'0 0.1
2015-May-24 11:31N 35°22' E 139°49'0 0.0
2015-May-24 10:31N 35°22' E 139°49'0 0.0
2015-May-24 09:31N 35°22' E 139°49'0 0.0
2015-May-24 08:31N 35°22' E 139°49'6 5.7
2015-May-24 07:33N 35°18' E 139°44'1110.5
2015-May-24 06:33N 35°08' E 139°46'1110.5
2015-May-24 05:31N 34°57' E 139°44'12 9.3
2015-May-24 04:17N 34°54' E 139°57'810.4
2015-May-24 03:33N 34°58' E 140°05'1010.4
2015-May-24 02:33N 35°03' E 140°16'11 9.5
2015-May-24 01:26N 35°10' E 140°25'9 9.5
2015-May-24 00:27N 35°18' E 140°32'9 9.7
2015-May-23 23:31N 35°25' E 140°39'10 9.9
2015-May-23 22:33N 35°32' E 140°48'11 9.9
2015-May-23 21:24N 35°41' E 140°55'3210.2
2015-May-23 18:15N 36°13' E 140°50'910.5
2015-May-23 17:24N 36°22' E 140°49'910.6
2015-May-23 16:33N 36°31' E 140°53'  
Track history (hours):
 
Tides and Currents Weather Stations Pressure Air Temp Water Temp Dewpoint Dewpoint Depression Visibility Wind Speed Wind Dir Waves Ship Positions

Ryuoh Maru No.2

Last reported at 2015-May-24 18:32 UTC. Time now 2015-May-24 19:24 UTC.
Position N 35°22' E 139°49'.

Length 80 m; draft 4.2 m.

Type: Cargo ship. MMSI: 431401218.

Date/timePositionNaut miles runAvg speedWind from/ knotsBaromVisibWave heightAir tempDewpointWater temp
2015-May-24 18:32N 35°22' E 139°49'0 0.0
2015-May-24 17:32N 35°22' E 139°49'0 0.0
2015-May-24 16:32N 35°22' E 139°49'0 0.0
2015-May-24 15:31N 35°22' E 139°49'0 0.0
2015-May-24 14:31N 35°22' E 139°49'0 0.0
2015-May-24 13:31N 35°22' E 139°49'0 0.0
2015-May-24 12:31N 35°22' E 139°49'0 0.1
2015-May-24 11:31N 35°22' E 139°49'0 0.0
2015-May-24 10:31N 35°22' E 139°49'0 0.0
2015-May-24 09:31N 35°22' E 139°49'0 0.0
2015-May-24 08:31N 35°22' E 139°49'6 5.7
2015-May-24 07:33N 35°18' E 139°44'1110.5
2015-May-24 06:33N 35°08' E 139°46'1110.5
2015-May-24 05:31N 34°57' E 139°44'12 9.3
2015-May-24 04:17N 34°54' E 139°57'810.4
2015-May-24 03:33N 34°58' E 140°05'1010.4
2015-May-24 02:33N 35°03' E 140°16'11 9.5
2015-May-24 01:26N 35°10' E 140°25'9 9.5
2015-May-24 00:27N 35°18' E 140°32'9 9.7
2015-May-23 23:31N 35°25' E 140°39'10 9.9
2015-May-23 22:33N 35°32' E 140°48'11 9.9
2015-May-23 21:24N 35°41' E 140°55'3210.2
2015-May-23 18:15N 36°13' E 140°50'910.5
2015-May-23 17:24N 36°22' E 140°49'910.6
2015-May-23 16:33N 36°31' E 140°53'  

Dump ship's entire track history